createdAt,value
2022-11-01T00:00:18.663Z,17.22
2022-11-01T00:05:21.332Z,17.25
2022-11-01T00:10:25.217Z,17.25
2022-11-01T00:15:28.206Z,17.24
2022-11-01T00:20:30.886Z,17.19
2022-11-01T00:25:34.737Z,17.14
2022-11-01T00:30:38.086Z,17.12
2022-11-01T00:35:40.601Z,17.12
2022-11-01T00:40:45.566Z,17.09
2022-11-01T00:45:48.140Z,17.04
2022-11-01T00:50:50.650Z,17.02
2022-11-01T00:55:54.516Z,16.99
2022-11-01T01:00:57.807Z,17.00
2022-11-01T01:06:00.381Z,16.96
2022-11-01T01:11:04.317Z,17.01
2022-11-01T01:22:53.538Z,17.07
2022-11-01T01:27:57.981Z,17.08
2022-11-01T01:33:00.539Z,17.09
2022-11-01T01:38:03.421Z,17.16
2022-11-01T01:43:10.554Z,17.13
2022-11-01T01:48:19.577Z,17.17
2022-11-01T01:53:27.795Z,17.15
2022-11-01T01:58:35.973Z,17.13
2022-11-01T02:03:40.924Z,17.14
2022-11-01T02:08:45.875Z,17.11
2022-11-01T02:13:50.074Z,17.09
2022-11-01T02:19:04.900Z,17.08
2022-11-01T02:24:32.212Z,17.08
2022-11-01T02:30:13.775Z,17.03
2022-11-01T02:35:24.084Z,17.02
2022-11-01T02:40:34.154Z,16.96
2022-11-01T02:45:41.414Z,16.93
2022-11-01T02:50:50.248Z,16.90
2022-11-01T02:55:53.823Z,16.87
2022-11-01T03:00:56.886Z,16.87
2022-11-01T03:06:11.622Z,16.86
2022-11-01T03:11:17.661Z,16.83
2022-11-01T03:16:25.882Z,16.81
2022-11-01T03:21:34.833Z,16.80
2022-11-01T03:26:40.097Z,16.79
2022-11-01T03:31:45.063Z,16.77
2022-11-01T03:36:52.922Z,16.80
2022-11-01T03:42:02.409Z,16.79
2022-11-01T03:47:05.274Z,16.74
2022-11-01T03:52:09.706Z,16.84
2022-11-01T03:57:12.419Z,16.90
2022-11-01T04:02:15.034Z,16.92
2022-11-01T04:07:18.961Z,17.00
2022-11-01T04:12:21.486Z,17.00
2022-11-01T04:17:41.522Z,17.05
2022-11-01T04:22:45.463Z,17.02
2022-11-01T04:27:48.054Z,17.06
2022-11-01T04:32:51.020Z,17.10
2022-11-01T04:37:59.123Z,17.12
2022-11-01T04:43:02.270Z,17.17
2022-11-01T04:48:07.267Z,17.19
2022-11-01T04:53:11.229Z,17.21
2022-11-01T04:58:14.554Z,17.24
2022-11-01T05:03:17.132Z,17.25
2022-11-01T05:08:21.042Z,17.28
2022-11-01T05:13:23.994Z,17.35
2022-11-01T05:18:26.559Z,17.37
2022-11-01T05:23:30.417Z,17.38
2022-11-01T05:28:32.954Z,17.32
2022-11-01T05:33:35.494Z,17.33
2022-11-01T05:38:39.375Z,17.22
2022-11-01T05:43:41.966Z,17.18
2022-11-01T05:48:44.476Z,17.19
2022-11-01T05:53:50.265Z,17.26
2022-11-01T05:58:52.802Z,17.11
2022-11-01T06:03:55.478Z,17.06
2022-11-01T06:09:00.314Z,16.94
2022-11-01T06:14:02.874Z,16.86
2022-11-01T06:19:05.382Z,16.73
2022-11-01T06:24:11.246Z,16.36
2022-11-01T06:29:13.792Z,16.57
2022-11-01T06:34:16.390Z,16.19
2022-11-01T06:39:20.283Z,16.16
2022-11-01T06:44:23.209Z,16.01
2022-11-01T06:49:25.723Z,15.99
2022-11-01T06:54:29.590Z,16.03
2022-11-01T06:59:32.144Z,15.88
2022-11-01T07:04:34.673Z,15.80
2022-11-01T07:09:38.540Z,15.64
2022-11-01T07:14:41.134Z,15.68
2022-11-01T07:19:43.664Z,15.50
2022-11-01T07:24:47.534Z,15.61
2022-11-01T07:29:50.046Z,15.31
2022-11-01T07:34:52.727Z,15.36
2022-11-01T07:39:56.627Z,15.25
2022-11-01T07:44:59.154Z,15.35
2022-11-01T07:50:01.678Z,15.54
2022-11-01T07:55:06.443Z,15.59
2022-11-01T08:00:10.547Z,15.41
2022-11-01T08:05:16.647Z,15.55
2022-11-01T08:10:21.032Z,15.72
2022-11-01T08:15:23.684Z,15.59
2022-11-01T08:20:27.313Z,15.56
2022-11-01T08:25:31.259Z,15.59
2022-11-01T08:30:34.604Z,15.78
2022-11-01T08:35:37.410Z,15.73
2022-11-01T08:40:41.336Z,15.50
2022-11-01T08:45:43.881Z,15.32
2022-11-01T08:50:46.447Z,15.76
2022-11-01T08:55:55.482Z,15.76
2022-11-01T09:00:58.131Z,15.73
2022-11-01T09:06:00.716Z,15.64
2022-11-01T09:11:06.241Z,15.62
2022-11-01T09:16:09.664Z,15.66
2022-11-01T09:21:12.471Z,15.68
2022-11-01T09:26:16.352Z,15.75
2022-11-01T09:31:21.432Z,15.70
2022-11-01T09:36:25.330Z,15.71
2022-11-01T09:41:35.461Z,15.81
2022-11-01T09:46:46.696Z,15.93
2022-11-01T09:51:51.934Z,16.04
2022-11-01T09:57:12.827Z,16.11
2022-11-01T10:02:32.709Z,16.11
2022-11-01T10:07:45.964Z,16.39
2022-11-01T10:13:05.114Z,16.48
2022-11-01T10:25:00.367Z,16.38
2022-11-01T10:30:08.275Z,16.07
2022-11-01T10:35:18.079Z,16.41
2022-11-01T10:40:28.850Z,16.52
2022-11-01T10:45:36.540Z,16.47
2022-11-01T10:50:40.283Z,16.43
2022-11-01T10:55:48.686Z,16.46
2022-11-01T11:00:54.480Z,16.52
2022-11-01T11:06:01.793Z,16.33
2022-11-01T11:11:10.004Z,16.68
2022-11-01T11:16:37.838Z,16.75
2022-11-01T11:21:49.132Z,16.76
2022-11-01T11:27:00.310Z,16.60
2022-11-01T11:32:09.522Z,16.63
2022-11-01T11:37:23.613Z,16.77
2022-11-01T11:42:27.306Z,16.87
2022-11-01T11:47:37.959Z,17.09
2022-11-01T11:52:42.758Z,17.19
2022-11-01T11:57:54.003Z,16.99
2022-11-01T12:03:04.805Z,17.14
2022-11-01T12:08:26.721Z,17.14
2022-11-01T12:13:35.960Z,15.81
2022-11-01T12:18:50.157Z,16.81
2022-11-01T12:30:51.945Z,17.34
2022-11-01T12:35:57.563Z,16.72
2022-11-01T12:41:11.843Z,16.83
2022-11-01T12:46:31.426Z,17.38
2022-11-01T12:51:41.265Z,15.93
2022-11-01T12:56:44.084Z,17.35
2022-11-01T13:01:53.696Z,17.08
2022-11-01T13:07:18.266Z,17.30
2022-11-01T13:12:35.885Z,17.81
2022-11-01T13:17:49.387Z,17.90
2022-11-01T13:23:28.572Z,17.13
2022-11-01T13:29:09.264Z,17.74
2022-11-01T13:34:37.941Z,16.94
2022-11-01T13:39:58.671Z,17.53
2022-11-01T13:45:25.757Z,17.34
2022-11-01T13:51:09.149Z,16.33
2022-11-01T13:56:17.041Z,17.71
2022-11-01T14:01:32.507Z,16.96
2022-11-01T14:06:37.764Z,16.16
2022-11-01T14:11:49.916Z,16.90
2022-11-01T14:17:50.454Z,16.83
2022-11-01T14:23:38.110Z,15.68
2022-11-01T14:29:06.809Z,15.42
2022-11-01T14:34:40.417Z,16.23
2022-11-01T14:39:52.029Z,16.66
2022-11-01T14:45:23.811Z,15.44
2022-11-01T14:50:41.887Z,14.91
2022-11-01T14:55:46.458Z,15.09
2022-11-01T15:00:58.540Z,16.24
2022-11-01T15:06:02.303Z,15.84
2022-11-01T15:11:07.742Z,16.80
2022-11-01T15:16:34.536Z,15.23
2022-11-01T15:21:53.888Z,14.92
2022-11-01T15:27:18.215Z,14.31
2022-11-01T15:32:43.689Z,16.57
2022-11-01T15:38:00.921Z,14.67
2022-11-01T15:43:18.641Z,14.28
2022-11-01T15:48:33.464Z,13.41
2022-11-01T15:53:40.511Z,13.03
2022-11-01T15:58:49.419Z,15.91
2022-11-01T16:03:58.403Z,16.30
2022-11-01T16:09:06.776Z,15.36
2022-11-01T16:14:26.636Z,16.23
2022-11-01T16:20:21.525Z,15.58
2022-11-01T16:25:37.532Z,14.84
2022-11-01T16:30:45.528Z,15.03
2022-11-01T16:35:51.160Z,16.05
2022-11-01T16:40:59.031Z,14.74
2022-11-01T16:46:10.088Z,15.75
2022-11-01T16:51:24.499Z,15.80
2022-11-01T16:56:42.066Z,12.69
2022-11-01T17:02:08.565Z,12.14
2022-11-01T17:07:14.659Z,13.35
2022-11-01T17:12:18.214Z,14.46
2022-11-01T17:17:25.647Z,13.21
2022-11-01T17:22:44.636Z,14.22
2022-11-01T17:27:55.982Z,13.22
2022-11-01T17:33:02.980Z,14.49
2022-11-01T17:38:12.440Z,15.49
2022-11-01T17:43:27.108Z,12.72
2022-11-01T17:48:35.953Z,14.04
2022-11-01T17:53:43.263Z,15.35
2022-11-01T17:58:51.950Z,14.17
2022-11-01T18:03:57.118Z,15.25
2022-11-01T18:09:01.327Z,15.24
2022-11-01T18:14:13.909Z,15.19
2022-11-01T18:19:39.187Z,14.91
2022-11-01T18:24:49.391Z,15.13
2022-11-01T18:29:53.742Z,14.98
2022-11-01T18:56:22.488Z,14.57
2022-11-01T19:01:31.674Z,14.80
2022-11-01T19:06:34.946Z,14.74
2022-11-01T19:11:39.422Z,14.64
2022-11-01T19:16:43.028Z,14.63
2022-11-01T19:21:46.242Z,14.56
2022-11-01T19:26:50.251Z,14.61
2022-11-01T19:31:55.454Z,14.53
2022-11-01T19:37:02.093Z,14.55
2022-11-01T19:42:26.763Z,14.44
2022-11-01T19:47:39.790Z,14.56
2022-11-01T19:52:47.486Z,14.60
2022-11-01T19:57:51.882Z,14.58
2022-11-01T20:02:58.283Z,14.63
2022-11-01T20:08:13.872Z,14.60
2022-11-01T20:13:18.536Z,14.57
2022-11-01T20:18:21.462Z,13.81
2022-11-01T20:23:26.698Z,14.45
2022-11-01T20:28:31.278Z,14.45
2022-11-01T20:33:33.936Z,14.37
2022-11-01T20:38:36.857Z,14.15
2022-11-01T20:43:41.141Z,14.35
2022-11-01T20:48:45.079Z,14.30
2022-11-01T20:53:47.756Z,14.24
2022-11-01T20:58:51.937Z,14.23
2022-11-01T21:03:55.447Z,14.22
2022-11-01T21:08:58.641Z,14.22
2022-11-01T21:14:02.535Z,14.28
2022-11-01T21:19:05.820Z,14.29
2022-11-01T21:24:26.486Z,14.34
2022-11-01T21:29:30.866Z,14.33
2022-11-01T21:34:33.913Z,14.23
2022-11-01T21:39:36.449Z,14.40
2022-11-01T21:44:42.765Z,14.42
2022-11-01T21:49:45.389Z,14.48
2022-11-01T21:54:48.903Z,14.47
2022-11-01T21:59:53.040Z,14.45
2022-11-01T22:04:55.955Z,14.50
2022-11-01T22:09:58.470Z,14.51
2022-11-01T22:15:02.355Z,14.50
2022-11-01T22:20:05.827Z,14.59
2022-11-01T22:25:09.333Z,14.65
2022-11-01T22:30:13.700Z,14.58
2022-11-01T22:35:16.221Z,14.62
2022-11-01T22:40:20.056Z,14.61
2022-11-01T22:45:24.459Z,14.55
2022-11-01T22:50:29.280Z,14.47
2022-11-01T22:55:32.406Z,14.06
2022-11-01T23:00:38.896Z,14.40
2022-11-01T23:05:42.764Z,14.39
2022-11-01T23:10:47.525Z,14.31
2022-11-01T23:15:52.051Z,14.38
2022-11-01T23:20:56.808Z,14.34
2022-11-01T23:26:03.071Z,14.42
2022-11-01T23:31:07.587Z,14.38
2022-11-01T23:36:17.167Z,14.32
2022-11-01T23:41:23.152Z,14.42
2022-11-01T23:46:27.838Z,14.52
2022-11-01T23:51:31.914Z,14.59
2022-11-01T23:56:34.470Z,14.62
